createdAt,value
2019-05-29T00:02:14.909Z,3.57
2019-05-29T00:04:44.660Z,4.17
2019-05-29T00:07:14.398Z,3.47
2019-05-29T00:09:45.069Z,4.03
2019-05-29T00:12:19.331Z,3.63
2019-05-29T00:14:46.192Z,3.90
2019-05-29T00:17:15.844Z,3.83
2019-05-29T00:19:45.483Z,3.70
2019-05-29T00:22:15.329Z,3.63
2019-05-29T00:24:46.224Z,3.80
2019-05-29T00:27:15.870Z,3.73
2019-05-29T00:29:46.706Z,3.20
2019-05-29T00:32:17.191Z,3.83
2019-05-29T00:34:47.597Z,3.70
2019-05-29T00:37:17.209Z,3.63
2019-05-29T00:39:46.866Z,3.50
2019-05-29T00:42:17.510Z,3.30
2019-05-29T00:44:47.245Z,3.53
2019-05-29T00:47:17.724Z,3.97
2019-05-29T00:49:47.554Z,3.60
2019-05-29T00:52:18.355Z,3.50
2019-05-29T00:54:47.990Z,3.70
2019-05-29T00:57:17.637Z,2.92
2019-05-29T00:59:47.428Z,3.50
2019-05-29T01:02:17.888Z,3.17
2019-05-29T01:04:47.621Z,3.57
2019-05-29T01:07:18.267Z,3.60
2019-05-29T01:09:47.975Z,3.75
2019-05-29T01:12:17.682Z,3.50
2019-05-29T01:14:50.472Z,3.70
2019-05-29T01:17:19.831Z,3.30
2019-05-29T01:19:49.564Z,3.77
2019-05-29T01:22:20.276Z,3.90
2019-05-29T01:24:50.216Z,3.20
2019-05-29T01:27:20.903Z,3.70
2019-05-29T01:29:50.623Z,3.70
2019-05-29T01:32:21.550Z,3.53
2019-05-29T01:34:51.584Z,4.45
2019-05-29T01:37:22.280Z,3.70
2019-05-29T01:39:51.982Z,4.20
2019-05-29T01:42:21.596Z,3.90
2019-05-29T01:45:06.322Z,3.60
2019-05-29T01:47:23.664Z,4.10
2019-05-29T01:49:54.623Z,4.03
2019-05-29T01:52:24.278Z,3.90
2019-05-29T01:54:53.957Z,4.23
2019-05-29T01:57:23.850Z,3.80
2019-05-29T01:59:54.021Z,4.00
2019-05-29T02:02:23.995Z,4.20
2019-05-29T02:04:53.785Z,4.37
2019-05-29T02:07:24.058Z,4.28
2019-05-29T02:09:53.827Z,4.50
2019-05-29T02:12:24.420Z,4.40
2019-05-29T02:14:54.088Z,4.53
2019-05-29T02:17:23.886Z,4.30
2019-05-29T02:19:53.463Z,4.75
2019-05-29T02:22:23.151Z,4.23
2019-05-29T02:24:52.850Z,4.20
2019-05-29T02:27:23.506Z,4.20
2019-05-29T02:29:53.225Z,4.43
2019-05-29T02:32:23.588Z,4.73
2019-05-29T02:34:53.254Z,3.62
2019-05-29T02:37:24.372Z,4.50
2019-05-29T02:39:54.666Z,4.43
2019-05-29T02:42:25.121Z,4.87
2019-05-29T02:44:55.171Z,4.23
2019-05-29T02:47:25.979Z,4.70
2019-05-29T02:49:56.049Z,4.13
2019-05-29T02:52:26.456Z,4.03
2019-05-29T02:54:56.455Z,4.30
2019-05-29T02:57:26.959Z,4.28
2019-05-29T02:59:56.660Z,4.13
2019-05-29T03:02:27.949Z,4.33
2019-05-29T03:04:57.820Z,4.80
2019-05-29T03:07:28.552Z,4.22
2019-05-29T03:09:58.383Z,4.40
2019-05-29T03:12:29.515Z,4.75
2019-05-29T03:14:59.554Z,4.73
2019-05-29T03:17:29.782Z,4.60
2019-05-29T03:19:59.710Z,4.87
2019-05-29T03:22:32.896Z,5.17
2019-05-29T03:25:02.512Z,4.23
2019-05-29T03:27:33.867Z,5.13
2019-05-29T03:30:03.921Z,4.03
2019-05-29T03:32:42.510Z,4.30
2019-05-29T03:35:05.293Z,5.07
2019-05-29T03:37:35.028Z,4.90
2019-05-29T03:40:05.453Z,4.70
2019-05-29T03:42:35.056Z,5.23
2019-05-29T03:45:04.987Z,4.87
2019-05-29T03:47:35.081Z,5.67
2019-05-29T03:50:05.964Z,5.05
2019-05-29T03:52:35.604Z,5.00
2019-05-29T03:55:06.513Z,4.95
2019-05-29T03:57:37.850Z,4.63
2019-05-29T04:00:08.282Z,4.70
2019-05-29T04:02:38.451Z,4.83
2019-05-29T04:05:09.093Z,4.73
2019-05-29T04:07:38.816Z,5.13
2019-05-29T04:10:09.113Z,5.00
2019-05-29T04:12:38.882Z,4.80
2019-05-29T04:15:09.333Z,4.43
2019-05-29T04:17:40.010Z,5.40
2019-05-29T04:20:09.884Z,4.50
2019-05-29T04:22:44.522Z,4.63
2019-05-29T04:25:14.638Z,4.90
2019-05-29T04:27:44.431Z,5.40
2019-05-29T04:30:14.167Z,5.03
2019-05-29T04:32:44.211Z,5.47
2019-05-29T04:35:13.991Z,5.13
2019-05-29T04:37:46.081Z,5.57
2019-05-29T04:40:15.689Z,5.03
2019-05-29T04:42:45.327Z,5.67
2019-05-29T04:45:15.913Z,5.60
2019-05-29T04:47:45.622Z,5.53
2019-05-29T04:50:15.746Z,5.77
2019-05-29T04:52:45.448Z,4.63
2019-05-29T04:55:15.132Z,5.00
2019-05-29T04:57:44.789Z,4.70
2019-05-29T05:00:14.909Z,4.85
2019-05-29T05:02:44.660Z,4.73
2019-05-29T05:05:14.742Z,5.30
2019-05-29T05:07:45.832Z,5.13
2019-05-29T05:10:20.911Z,5.13
2019-05-29T05:12:50.689Z,4.60
2019-05-29T05:15:20.924Z,5.05
2019-05-29T05:17:50.663Z,5.33
2019-05-29T05:20:20.421Z,4.90
2019-05-29T05:22:50.094Z,5.50
2019-05-29T05:25:19.806Z,4.97
2019-05-29T05:27:49.591Z,4.93
2019-05-29T05:30:19.372Z,5.30
2019-05-29T05:32:49.084Z,4.83
2019-05-29T05:35:20.045Z,4.57
2019-05-29T05:37:50.300Z,4.77
2019-05-29T05:40:20.304Z,4.87
2019-05-29T05:42:50.227Z,5.40
2019-05-29T05:45:20.045Z,5.10
2019-05-29T05:47:57.524Z,5.00
2019-05-29T05:50:21.333Z,4.33
2019-05-29T05:52:51.174Z,4.47
2019-05-29T05:55:20.988Z,5.05
2019-05-29T05:57:50.907Z,4.33
2019-05-29T06:00:31.899Z,4.17
2019-05-29T06:03:01.783Z,4.00
2019-05-29T06:05:32.085Z,3.47
2019-05-29T06:08:01.990Z,3.53
2019-05-29T06:10:32.033Z,3.92
2019-05-29T06:13:01.784Z,3.80
2019-05-29T06:15:32.344Z,4.60
2019-05-29T06:18:19.760Z,3.77
2019-05-29T06:20:34.710Z,3.60
2019-05-29T06:23:04.654Z,4.07
2019-05-29T06:25:36.322Z,3.83
2019-05-29T06:28:05.910Z,3.70
2019-05-29T06:30:36.566Z,2.90
2019-05-29T06:33:06.942Z,3.03
2019-05-29T06:35:37.587Z,3.10
2019-05-29T06:38:07.481Z,3.10
2019-05-29T06:40:40.208Z,3.83
2019-05-29T06:43:19.687Z,3.53
2019-05-29T06:45:50.823Z,2.97
2019-05-29T06:48:41.807Z,3.40
2019-05-29T06:50:58.974Z,3.15
2019-05-29T06:53:28.670Z,3.23
2019-05-29T06:56:00.313Z,2.60
2019-05-29T06:58:30.192Z,3.00
2019-05-29T07:01:00.765Z,2.50
2019-05-29T07:03:30.714Z,2.22
2019-05-29T07:06:00.388Z,2.50
2019-05-29T07:08:38.902Z,2.23
2019-05-29T07:11:01.629Z,1.93
2019-05-29T07:13:34.851Z,1.90
2019-05-29T07:16:02.923Z,2.23
2019-05-29T07:18:32.654Z,1.80
2019-05-29T07:21:02.471Z,1.80
2019-05-29T07:23:32.055Z,1.70
2019-05-29T07:26:01.812Z,1.97
2019-05-29T07:28:32.683Z,2.35
2019-05-29T07:31:03.687Z,2.33
2019-05-29T07:33:33.938Z,2.00
2019-05-29T07:36:03.718Z,2.30
2019-05-29T07:38:33.505Z,1.73
2019-05-29T07:41:03.206Z,2.00
2019-05-29T07:43:33.130Z,2.13
2019-05-29T07:46:02.867Z,2.33
2019-05-29T07:48:32.516Z,2.57
2019-05-29T07:51:06.947Z,2.05
2019-05-29T07:53:33.810Z,2.03
2019-05-29T07:56:03.539Z,2.62
2019-05-29T07:58:33.649Z,2.43
2019-05-29T08:01:12.781Z,2.13
2019-05-29T08:03:35.892Z,2.47
2019-05-29T08:06:06.653Z,2.00
2019-05-29T08:08:36.396Z,1.47
2019-05-29T08:11:07.246Z,1.87
2019-05-29T08:13:37.010Z,1.67
2019-05-29T08:16:07.141Z,1.40
2019-05-29T08:18:36.881Z,1.20
2019-05-29T08:21:06.560Z,1.57
2019-05-29T08:23:36.345Z,1.35
2019-05-29T08:26:06.089Z,2.20
2019-05-29T08:28:35.908Z,1.98
2019-05-29T08:31:05.762Z,2.10
2019-05-29T08:33:35.532Z,1.70
2019-05-29T08:36:05.301Z,1.80
2019-05-29T08:38:35.639Z,1.67
2019-05-29T08:41:06.023Z,2.00
2019-05-29T08:43:35.667Z,2.00
2019-05-29T08:46:05.487Z,2.10
2019-05-29T08:48:35.598Z,1.95
2019-05-29T08:51:05.309Z,2.02
2019-05-29T08:53:35.116Z,1.57
2019-05-29T08:56:04.916Z,1.77
2019-05-29T08:58:37.219Z,2.00
2019-05-29T09:01:06.097Z,1.80
2019-05-29T09:03:36.099Z,1.80
2019-05-29T09:06:09.236Z,2.15
2019-05-29T09:08:38.553Z,1.98
2019-05-29T09:11:08.768Z,1.90
2019-05-29T09:13:38.597Z,2.20
2019-05-29T09:16:08.451Z,1.90
2019-05-29T09:18:38.295Z,1.70
2019-05-29T09:21:08.488Z,1.70
2019-05-29T09:23:38.274Z,2.17
2019-05-29T09:26:16.265Z,2.00
2019-05-29T09:28:39.486Z,1.80
2019-05-29T09:31:09.159Z,1.70
2019-05-29T09:33:38.821Z,1.80
2019-05-29T09:36:08.579Z,1.90
2019-05-29T09:38:38.517Z,1.97
2019-05-29T09:41:08.328Z,1.90
2019-05-29T09:43:38.163Z,2.20
2019-05-29T09:46:07.838Z,1.70
2019-05-29T09:48:49.319Z,1.47
2019-05-29T09:51:20.795Z,1.32
2019-05-29T09:53:41.089Z,1.90
2019-05-29T09:56:11.105Z,1.40
2019-05-29T09:58:40.854Z,1.93
2019-05-29T10:01:22.669Z,1.60
2019-05-29T10:03:42.039Z,1.40
2019-05-29T10:06:11.721Z,1.35
2019-05-29T10:08:41.441Z,1.50
2019-05-29T10:11:15.318Z,1.32
2019-05-29T10:13:44.957Z,1.30
2019-05-29T10:16:14.658Z,1.17
2019-05-29T10:18:44.466Z,1.25
2019-05-29T10:21:14.210Z,1.60
2019-05-29T10:23:43.871Z,3.00
2019-05-29T10:26:13.821Z,4.00
2019-05-29T10:28:55.615Z,1.50
2019-05-29T10:31:14.932Z,1.80
2019-05-29T10:33:44.587Z,6.08
2019-05-29T10:36:15.314Z,1.93
2019-05-29T10:38:46.406Z,1.37
2019-05-29T10:41:16.553Z,1.53
2019-05-29T10:43:47.057Z,1.87
2019-05-29T10:46:16.948Z,2.37
2019-05-29T10:48:49.357Z,1.32
2019-05-29T10:51:18.204Z,1.37
2019-05-29T10:53:50.311Z,1.30
2019-05-29T10:56:21.793Z,1.13
2019-05-29T10:58:58.115Z,1.22
2019-05-29T11:01:23.728Z,1.10
2019-05-29T11:03:55.754Z,1.30
2019-05-29T11:06:25.774Z,1.40
2019-05-29T11:08:56.299Z,1.37
2019-05-29T11:11:26.019Z,1.30
2019-05-29T11:13:57.055Z,1.70
2019-05-29T11:16:26.850Z,1.70
2019-05-29T11:18:57.588Z,1.40
2019-05-29T11:21:27.408Z,1.40
2019-05-29T11:23:58.203Z,1.43
2019-05-29T11:26:28.043Z,1.22
2019-05-29T11:28:58.820Z,1.27
2019-05-29T11:31:29.840Z,1.87
2019-05-29T11:33:59.461Z,1.57
2019-05-29T11:36:29.220Z,1.63
2019-05-29T11:39:03.285Z,1.80
2019-05-29T11:41:34.344Z,1.87
2019-05-29T11:44:05.178Z,1.83
2019-05-29T11:46:35.614Z,2.10
2019-05-29T11:49:05.675Z,1.47
2019-05-29T11:51:35.436Z,1.33
2019-05-29T11:54:05.408Z,1.50
2019-05-29T11:56:35.388Z,2.20
2019-05-29T11:59:05.334Z,1.92
2019-05-29T12:01:49.653Z,2.60
2019-05-29T12:04:22.948Z,1.57
2019-05-29T12:06:38.641Z,1.97
2019-05-29T12:09:09.903Z,1.80
2019-05-29T12:11:39.569Z,1.90
2019-05-29T12:14:09.441Z,1.77
2019-05-29T12:16:39.080Z,1.73
2019-05-29T12:19:08.773Z,1.80
2019-05-29T12:21:42.363Z,2.07
2019-05-29T12:24:10.953Z,1.40
2019-05-29T12:26:40.740Z,1.80
2019-05-29T12:29:11.890Z,1.80
2019-05-29T12:31:41.975Z,1.93
2019-05-29T12:34:19.211Z,1.40
2019-05-29T12:36:44.115Z,1.55
2019-05-29T12:39:13.754Z,1.57
2019-05-29T12:41:43.443Z,1.40
2019-05-29T12:44:13.193Z,1.43
2019-05-29T12:46:43.130Z,1.92
2019-05-29T12:49:12.986Z,1.73
2019-05-29T12:51:42.741Z,1.67
2019-05-29T12:54:12.647Z,1.50
2019-05-29T12:56:42.555Z,1.47
2019-05-29T12:59:12.314Z,1.70
2019-05-29T13:01:42.110Z,1.20
2019-05-29T13:04:14.699Z,1.70
2019-05-29T13:06:44.398Z,1.57
2019-05-29T13:09:14.056Z,1.87
2019-05-29T13:11:43.719Z,1.37
2019-05-29T13:14:13.803Z,1.57
2019-05-29T13:16:43.490Z,1.20
2019-05-29T13:19:13.332Z,1.20
2019-05-29T13:21:44.013Z,1.50
2019-05-29T13:24:14.845Z,1.30
2019-05-29T13:26:44.896Z,1.20
2019-05-29T13:29:15.039Z,1.50
2019-05-29T13:31:44.791Z,1.50
2019-05-29T13:34:14.515Z,1.50
2019-05-29T13:36:44.467Z,1.12
2019-05-29T13:39:14.207Z,1.37
2019-05-29T13:41:43.941Z,1.10
2019-05-29T13:44:13.618Z,1.15
2019-05-29T13:46:43.479Z,1.30
2019-05-29T13:49:13.230Z,1.10
2019-05-29T13:51:42.896Z,1.30
2019-05-29T13:54:17.487Z,1.00
2019-05-29T13:56:44.126Z,1.10
2019-05-29T13:59:14.006Z,0.90
2019-05-29T14:01:47.945Z,1.37
2019-05-29T14:04:15.147Z,1.00
2019-05-29T14:06:44.806Z,1.05
2019-05-29T14:09:14.436Z,0.82
2019-05-29T14:11:44.200Z,1.00
2019-05-29T14:14:13.995Z,0.83
2019-05-29T14:16:43.808Z,1.00
2019-05-29T14:19:13.652Z,1.07
2019-05-29T14:21:44.420Z,1.00
2019-05-29T14:24:28.392Z,1.10
2019-05-29T14:26:46.821Z,1.10
2019-05-29T14:29:16.702Z,1.17
2019-05-29T14:31:46.358Z,1.40
2019-05-29T14:34:16.117Z,1.17
2019-05-29T14:36:45.949Z,1.83
2019-05-29T14:39:15.655Z,1.60
2019-05-29T14:41:45.436Z,1.60
2019-05-29T14:44:17.417Z,1.70
2019-05-29T14:46:47.299Z,1.40
2019-05-29T14:49:17.436Z,1.40
2019-05-29T14:51:47.199Z,1.40
2019-05-29T14:54:16.972Z,1.12
2019-05-29T14:56:46.710Z,1.00
2019-05-29T14:59:16.548Z,1.00
2019-05-29T15:01:51.022Z,0.93
2019-05-29T15:04:17.821Z,0.80
2019-05-29T15:06:48.106Z,0.80
2019-05-29T15:09:18.964Z,1.20
2019-05-29T15:11:49.083Z,1.25
2019-05-29T15:14:18.716Z,0.77
2019-05-29T15:16:48.505Z,1.10
2019-05-29T15:19:18.283Z,1.10
2019-05-29T15:21:47.945Z,0.80
2019-05-29T15:24:17.958Z,1.10
2019-05-29T15:26:47.692Z,1.40
2019-05-29T15:29:18.125Z,1.10
2019-05-29T15:31:47.887Z,1.00
2019-05-29T15:34:17.620Z,0.90
2019-05-29T15:36:47.250Z,1.00
2019-05-29T15:39:17.986Z,1.00
2019-05-29T15:41:49.046Z,1.23
2019-05-29T15:44:18.996Z,0.90
2019-05-29T15:46:49.688Z,0.77
2019-05-29T15:49:19.485Z,1.20
2019-05-29T15:51:49.172Z,0.90
2019-05-29T15:54:18.928Z,0.90
2019-05-29T15:56:48.599Z,0.93
2019-05-29T15:59:19.091Z,0.73
2019-05-29T16:01:48.934Z,1.20
2019-05-29T16:04:18.568Z,1.20
2019-05-29T16:06:48.377Z,1.00
2019-05-29T16:09:18.728Z,1.02
2019-05-29T16:11:48.734Z,0.80
2019-05-29T16:14:19.225Z,1.10
2019-05-29T16:16:49.512Z,1.17
2019-05-29T16:19:20.396Z,1.02
2019-05-29T16:21:50.783Z,1.03
2019-05-29T16:24:20.874Z,1.00
2019-05-29T16:26:50.650Z,0.93
2019-05-29T16:29:20.324Z,1.13
2019-05-29T16:31:50.104Z,1.30
2019-05-29T16:34:21.987Z,1.20
2019-05-29T16:36:53.248Z,0.93
2019-05-29T16:39:23.054Z,1.00
2019-05-29T16:41:52.775Z,1.10
2019-05-29T16:44:27.375Z,1.33
2019-05-29T16:46:55.522Z,1.00
2019-05-29T16:49:25.203Z,1.00
2019-05-29T16:51:57.185Z,1.10
2019-05-29T16:54:27.793Z,1.00
2019-05-29T16:56:58.631Z,1.00
2019-05-29T16:59:29.685Z,1.10
2019-05-29T17:02:01.706Z,1.33
2019-05-29T17:04:31.414Z,1.00
2019-05-29T17:07:01.165Z,0.73
2019-05-29T17:09:30.990Z,1.17
2019-05-29T17:12:00.650Z,0.97
2019-05-29T17:14:30.389Z,1.00
2019-05-29T17:17:00.141Z,1.10
2019-05-29T17:19:29.846Z,1.17
2019-05-29T17:21:59.644Z,0.82
2019-05-29T17:24:29.631Z,0.97
2019-05-29T17:26:59.786Z,0.87
2019-05-29T17:29:29.565Z,0.80
2019-05-29T17:32:00.441Z,0.70
2019-05-29T17:34:30.200Z,1.02
2019-05-29T17:36:59.914Z,1.10
2019-05-29T17:39:29.615Z,1.20
2019-05-29T17:41:59.375Z,0.90
2019-05-29T17:44:29.139Z,0.90
2019-05-29T17:46:58.822Z,1.30
2019-05-29T17:49:34.135Z,1.07
2019-05-29T17:52:00.012Z,1.00
2019-05-29T17:54:29.748Z,1.20
2019-05-29T17:56:59.914Z,1.15
2019-05-29T17:59:29.708Z,1.00
2019-05-29T18:01:59.388Z,0.80
2019-05-29T18:04:29.256Z,1.10
2019-05-29T18:06:59.216Z,1.10
2019-05-29T18:09:29.355Z,1.17
2019-05-29T18:11:59.513Z,0.90
2019-05-29T18:14:29.601Z,0.93
2019-05-29T18:16:59.518Z,1.00
2019-05-29T18:19:29.360Z,1.00
2019-05-29T18:21:59.377Z,0.80
2019-05-29T18:24:29.170Z,0.70
2019-05-29T18:26:59.538Z,0.95
2019-05-29T18:29:29.723Z,1.20
2019-05-29T18:31:59.828Z,0.97
2019-05-29T18:34:29.804Z,0.70
2019-05-29T18:36:59.809Z,0.70
2019-05-29T18:39:29.526Z,0.80
2019-05-29T18:41:59.344Z,0.90
2019-05-29T18:44:30.078Z,0.80
2019-05-29T18:46:59.979Z,1.20
2019-05-29T18:49:29.705Z,0.70
2019-05-29T18:52:00.562Z,1.27
2019-05-29T18:54:30.547Z,1.47
2019-05-29T18:57:15.386Z,0.75
2019-05-29T18:59:34.617Z,0.70
2019-05-29T19:02:04.804Z,0.90
2019-05-29T19:04:34.657Z,0.90
2019-05-29T19:07:04.592Z,0.97
2019-05-29T19:09:34.299Z,1.00
2019-05-29T19:12:04.143Z,1.07
2019-05-29T19:14:33.863Z,1.20
2019-05-29T19:17:03.721Z,1.10
2019-05-29T19:19:33.981Z,0.90
2019-05-29T19:22:03.820Z,0.97
2019-05-29T19:24:34.664Z,0.90
2019-05-29T19:27:04.506Z,1.10
2019-05-29T19:29:35.376Z,1.00
2019-05-29T19:32:05.196Z,1.07
2019-05-29T19:34:35.856Z,1.13
2019-05-29T19:37:06.069Z,1.30
2019-05-29T19:39:35.892Z,1.10
2019-05-29T19:42:05.631Z,1.13
2019-05-29T19:44:35.650Z,1.00
2019-05-29T19:47:05.624Z,0.80
2019-05-29T19:49:35.765Z,0.97
2019-05-29T19:52:05.658Z,1.90
2019-05-29T19:54:36.414Z,2.33
2019-05-29T19:57:06.613Z,2.05
2019-05-29T19:59:36.413Z,1.77
2019-05-29T20:02:06.515Z,1.30
2019-05-29T20:04:36.900Z,1.20
2019-05-29T20:07:06.859Z,1.20
2019-05-29T20:09:37.603Z,1.63
2019-05-29T20:12:07.539Z,1.30
2019-05-29T20:14:38.128Z,1.53
2019-05-29T20:17:07.894Z,1.20
2019-05-29T20:19:40.504Z,1.67
2019-05-29T20:22:09.275Z,1.20
2019-05-29T20:24:39.272Z,1.20
2019-05-29T20:27:09.083Z,1.30
2019-05-29T20:29:39.871Z,1.30
2019-05-29T20:32:10.067Z,1.10
2019-05-29T20:34:39.789Z,1.30
2019-05-29T20:37:09.655Z,1.20
2019-05-29T20:39:39.505Z,1.10
2019-05-29T20:42:09.390Z,0.97
2019-05-29T20:44:39.217Z,1.17
2019-05-29T20:47:09.088Z,1.50
2019-05-29T20:49:40.077Z,1.10
2019-05-29T20:52:11.077Z,1.10
2019-05-29T20:54:41.820Z,1.28
2019-05-29T20:57:11.900Z,1.40
2019-05-29T20:59:42.311Z,1.67
2019-05-29T21:02:13.366Z,1.40
2019-05-29T21:04:43.300Z,1.40
2019-05-29T21:07:13.022Z,1.40
2019-05-29T21:09:43.300Z,1.20
2019-05-29T21:12:13.186Z,1.30
2019-05-29T21:14:44.620Z,1.70
2019-05-29T21:17:14.429Z,1.67
2019-05-29T21:19:44.662Z,1.70
2019-05-29T21:22:15.669Z,2.00
2019-05-29T21:24:59.871Z,1.63
2019-05-29T21:27:18.921Z,1.90
2019-05-29T21:29:48.733Z,1.83
2019-05-29T21:32:18.531Z,1.90
2019-05-29T21:34:48.302Z,1.80
2019-05-29T21:37:21.912Z,1.70
2019-05-29T21:39:51.639Z,1.97
2019-05-29T21:42:21.414Z,2.00
2019-05-29T21:44:51.183Z,1.80
2019-05-29T21:47:21.678Z,1.67
2019-05-29T21:49:51.509Z,1.67
2019-05-29T21:52:21.375Z,1.73
2019-05-29T21:54:51.201Z,1.97
2019-05-29T21:57:21.969Z,2.00
2019-05-29T21:59:52.085Z,1.80
2019-05-29T22:02:21.862Z,2.27
2019-05-29T22:04:52.005Z,1.93
2019-05-29T22:07:21.770Z,2.00
2019-05-29T22:09:52.288Z,2.10
2019-05-29T22:12:22.356Z,2.27
2019-05-29T22:14:53.312Z,2.03
2019-05-29T22:17:23.385Z,2.00
2019-05-29T22:19:53.040Z,2.10
2019-05-29T22:22:22.822Z,1.73
2019-05-29T22:24:53.098Z,1.90
2019-05-29T22:27:23.803Z,2.10
2019-05-29T22:29:53.649Z,1.60
2019-05-29T22:32:23.454Z,1.80
2019-05-29T22:34:55.434Z,1.50
2019-05-29T22:37:25.216Z,1.73
2019-05-29T22:39:55.933Z,1.83
2019-05-29T22:42:25.793Z,1.60
2019-05-29T22:44:55.689Z,1.53
2019-05-29T22:47:26.367Z,1.75
2019-05-29T22:49:56.087Z,1.75
2019-05-29T22:52:25.642Z,1.77
2019-05-29T22:54:55.806Z,1.43
2019-05-29T22:57:25.848Z,1.60
2019-05-29T22:59:55.953Z,1.57
2019-05-29T23:02:25.808Z,1.93
2019-05-29T23:04:56.228Z,1.63
2019-05-29T23:07:25.944Z,1.70
2019-05-29T23:09:56.694Z,1.90
2019-05-29T23:12:26.536Z,1.80
2019-05-29T23:14:56.381Z,2.00
2019-05-29T23:17:26.026Z,1.77
2019-05-29T23:19:56.682Z,2.13
2019-05-29T23:22:26.300Z,2.43
2019-05-29T23:24:56.694Z,1.80
2019-05-29T23:27:26.341Z,1.40
2019-05-29T23:29:56.831Z,1.80
2019-05-29T23:32:26.571Z,1.90
2019-05-29T23:34:57.155Z,1.55
2019-05-29T23:37:26.888Z,1.53
2019-05-29T23:39:57.163Z,1.60
2019-05-29T23:42:26.781Z,1.47
2019-05-29T23:44:57.614Z,1.40
2019-05-29T23:47:27.482Z,1.40
2019-05-29T23:49:57.565Z,1.87
2019-05-29T23:52:27.757Z,1.60
2019-05-29T23:54:57.957Z,1.53
2019-05-29T23:57:27.708Z,1.40
